Weather at Paphos General Hospital Helipad

Public forecast

Using degrees Celsius for public forecast. Weather courtesy of forecast.io.

Closest aviation weather report (METAR) to Paphos General Hospital Helipad

Closest report is Paphos International Airport, 4.6 nm (8.6 km) SSE.

2024/06/13 16:00 (retrieved 36 minutes ago)

LCPH 131600Z 31011KT 250V320 CAVOK 28/27 Q1010 NOSIG

Closest aviation forecast (TAF) to Paphos General Hospital Helipad

Closest forecast is Paphos International Airport, 4.6 nm (8.6 km) SSE.

2024/06/13 12:50 (retrieved 4 hours ago)

TAF LCPH 131130Z 1312/1412 16008KT 9999 FEW030 BECMG 1312/1315 29010KT BECMG 1317/1320 35007KT PROB30 TEMPO 1321/1406 5000 BR BKN007 BECMG 1405/1408 16010KT